createdAt,value
2023-02-12T00:01:24.281Z,103589.70
2023-02-12T00:03:52.045Z,103580.77
2023-02-12T00:06:19.866Z,103575.14
2023-02-12T00:08:51.872Z,103578.41
2023-02-12T00:11:24.840Z,103580.77
2023-02-12T00:13:52.679Z,103578.09
2023-02-12T00:16:24.041Z,103575.73
2023-02-12T00:18:56.279Z,103578.58
2023-02-12T00:21:25.114Z,103566.94
2023-02-12T00:23:52.867Z,103574.55
2023-02-12T00:26:22.684Z,103578.91
2023-02-12T00:28:51.668Z,103576.68
2023-02-12T00:31:28.466Z,103582.70
2023-02-12T00:33:56.398Z,103595.38
2023-02-12T00:36:26.987Z,103584.10
2023-02-12T00:38:56.315Z,103572.95
2023-02-12T00:41:24.805Z,103584.34
2023-02-12T00:43:52.473Z,103573.74
2023-02-12T00:46:20.981Z,103572.01
2023-02-12T00:48:48.758Z,103578.22
2023-02-12T00:51:16.622Z,103578.02
2023-02-12T00:53:44.476Z,103592.48
2023-02-12T00:56:12.249Z,103586.95
2023-02-12T00:58:39.918Z,103578.48
2023-02-12T01:01:07.877Z,103583.68
2023-02-12T01:03:35.709Z,103589.99
2023-02-12T01:06:03.530Z,103578.97
2023-02-12T01:08:31.464Z,103573.67
2023-02-12T01:11:02.466Z,103575.70
2023-02-12T01:13:32.300Z,103579.07
2023-02-12T01:16:14.810Z,103574.26
2023-02-12T01:18:42.821Z,103575.54
2023-02-12T01:21:12.045Z,103568.02
2023-02-12T01:23:40.140Z,103562.95
2023-02-12T01:26:08.656Z,103571.32
2023-02-12T01:28:36.371Z,103569.65
2023-02-12T01:31:08.592Z,103568.87
2023-02-12T01:33:36.412Z,103572.40
2023-02-12T01:36:04.296Z,103559.94
2023-02-12T01:38:32.582Z,103561.31
2023-02-12T01:41:13.031Z,103555.00
2023-02-12T01:43:41.400Z,103566.35
2023-02-12T01:46:10.808Z,103564.84
2023-02-12T01:48:41.569Z,103564.38
2023-02-12T01:51:12.981Z,103569.16
2023-02-12T01:53:48.187Z,103563.34
2023-02-12T01:56:17.023Z,103571.41
2023-02-12T01:58:47.278Z,103575.41
2023-02-12T02:01:20.948Z,103573.77
2023-02-12T02:03:55.772Z,103572.13
2023-02-12T02:06:30.977Z,103572.85
2023-02-12T02:08:59.127Z,103567.55
2023-02-12T02:11:45.096Z,103569.06
2023-02-12T02:14:31.613Z,103568.60
2023-02-12T02:17:02.436Z,103570.50
2023-02-12T02:19:58.012Z,103572.98
2023-02-12T02:22:40.214Z,103566.19
2023-02-12T02:25:45.234Z,103560.89
2023-02-12T02:28:18.984Z,103557.59
2023-02-12T02:31:21.670Z,103541.49
2023-02-12T02:34:30.649Z,103548.16
2023-02-12T02:37:05.684Z,103543.72
2023-02-12T02:39:36.133Z,103547.25
2023-02-12T02:42:18.170Z,103551.73
2023-02-12T02:45:08.287Z,103555.46
2023-02-12T02:47:44.363Z,103557.81
2023-02-12T02:50:22.813Z,103562.30
2023-02-12T02:52:58.829Z,103556.63
2023-02-12T02:55:32.155Z,103548.56
2023-02-12T02:58:10.232Z,103552.05
2023-02-12T03:00:43.203Z,103551.47
2023-02-12T03:03:19.562Z,103550.20
2023-02-12T03:05:51.977Z,103546.20
2023-02-12T03:08:26.308Z,103538.81
2023-02-12T03:11:08.286Z,103538.69
2023-02-12T03:13:47.562Z,103538.91
2023-02-12T03:16:31.153Z,103540.09
2023-02-12T03:19:09.896Z,103539.01
2023-02-12T03:21:49.799Z,103543.95
2023-02-12T03:24:27.614Z,103542.31
2023-02-12T03:27:10.368Z,103539.27
2023-02-12T03:29:38.372Z,103536.59
2023-02-12T03:32:30.840Z,103527.04
2023-02-12T03:35:36.708Z,103525.54
2023-02-12T03:38:11.020Z,103526.72
2023-02-12T03:40:43.232Z,103533.88
2023-02-12T03:43:32.534Z,103530.57
2023-02-12T03:46:18.581Z,103532.93
2023-02-12T03:48:49.151Z,103537.73
2023-02-12T03:51:19.832Z,103536.69
2023-02-12T03:53:48.405Z,103539.27
2023-02-12T03:56:40.546Z,103547.84
2023-02-12T03:59:08.650Z,103546.89
2023-02-12T04:01:37.532Z,103549.12
2023-02-12T04:04:08.010Z,103567.66
2023-02-12T04:06:36.227Z,103558.50
2023-02-12T04:09:08.410Z,103562.49
2023-02-12T04:11:55.080Z,103564.52
2023-02-12T04:15:00.455Z,103561.54
2023-02-12T04:17:48.722Z,103562.03
2023-02-12T04:20:42.586Z,103554.74
2023-02-12T04:23:24.303Z,103565.14
2023-02-12T04:26:04.036Z,103563.83
2023-02-12T04:29:18.488Z,103571.35
2023-02-12T04:31:58.243Z,103573.22
2023-02-12T04:34:57.955Z,103573.67
2023-02-12T04:37:32.710Z,103579.33
2023-02-12T04:40:01.689Z,103585.41
2023-02-12T04:42:29.509Z,103586.13
2023-02-12T04:44:57.122Z,103583.77
2023-02-12T04:47:24.823Z,103589.40
2023-02-12T04:49:52.442Z,103589.27
2023-02-12T04:52:20.263Z,103587.77
2023-02-12T04:54:47.909Z,103588.45
2023-02-12T04:57:15.518Z,103589.27
2023-02-12T04:59:43.213Z,103579.79
2023-02-12T05:02:10.873Z,103575.47
2023-02-12T05:04:38.581Z,103572.53
2023-02-12T05:07:06.309Z,103577.01
2023-02-12T05:09:33.967Z,103580.09
2023-02-12T05:12:01.583Z,103579.95
2023-02-12T05:14:29.310Z,103581.39
2023-02-12T05:16:57.041Z,103576.23
2023-02-12T05:19:24.684Z,103581.48
2023-02-12T05:21:52.728Z,103579.16
2023-02-12T05:24:20.364Z,103583.16
2023-02-12T05:26:51.059Z,103584.79
2023-02-12T05:29:19.531Z,103574.82
2023-02-12T05:31:47.455Z,103568.84
2023-02-12T05:34:15.630Z,103577.76
2023-02-12T05:36:43.503Z,103567.33
2023-02-12T05:39:11.704Z,103565.56
2023-02-12T05:41:39.407Z,103567.07
2023-02-12T05:44:08.081Z,103570.01
2023-02-12T05:46:35.821Z,103566.35
2023-02-12T05:49:03.758Z,103555.10
2023-02-12T05:51:33.316Z,103562.26
2023-02-12T05:54:04.878Z,103559.91
2023-02-12T05:56:35.172Z,103567.20
2023-02-12T05:59:08.473Z,103562.85
2023-02-12T06:01:41.560Z,103563.80
2023-02-12T06:04:16.087Z,103564.98
2023-02-12T06:06:44.207Z,103566.48
2023-02-12T06:09:13.321Z,103566.35
2023-02-12T06:11:41.648Z,103558.86
2023-02-12T06:14:12.187Z,103561.54
2023-02-12T06:16:40.056Z,103565.17
2023-02-12T06:19:08.099Z,103563.41
2023-02-12T06:21:35.881Z,103563.90
2023-02-12T06:24:03.599Z,103568.67
2023-02-12T06:26:31.733Z,103564.81
2023-02-12T06:28:59.545Z,103569.88
2023-02-12T06:31:32.852Z,103577.27
2023-02-12T06:34:04.144Z,103567.88
2023-02-12T06:36:31.838Z,103563.18
2023-02-12T06:39:01.735Z,103566.45
2023-02-12T06:41:29.724Z,103566.19
2023-02-12T06:43:57.626Z,103566.55
2023-02-12T06:46:25.852Z,103571.81
2023-02-12T06:48:58.815Z,103566.45
2023-02-12T06:51:27.848Z,103560.95
2023-02-12T06:53:56.895Z,103567.03
2023-02-12T06:56:26.032Z,103571.84
2023-02-12T06:58:59.007Z,103570.70
2023-02-12T07:01:29.462Z,103575.14
2023-02-12T07:04:03.542Z,103573.51
2023-02-12T07:06:37.202Z,103578.19
2023-02-12T07:09:06.236Z,103581.81
2023-02-12T07:11:38.146Z,103587.80
2023-02-12T07:14:07.381Z,103586.30
2023-02-12T07:16:35.171Z,103580.18
2023-02-12T07:19:02.919Z,103573.38
2023-02-12T07:21:30.702Z,103578.31
2023-02-12T07:23:58.639Z,103574.33
2023-02-12T07:26:26.352Z,103581.00
2023-02-12T07:28:54.006Z,103582.50
2023-02-12T07:31:24.281Z,103584.04
2023-02-12T07:33:57.150Z,103582.05
2023-02-12T07:36:26.596Z,103580.18
2023-02-12T07:38:56.062Z,103581.81
2023-02-12T07:41:26.209Z,103582.44
2023-02-12T07:44:02.652Z,103581.00
2023-02-12T07:46:34.219Z,103579.85
2023-02-12T07:49:05.571Z,103573.54
2023-02-12T07:51:34.548Z,103574.91
2023-02-12T07:54:03.678Z,103572.37
2023-02-12T07:56:36.216Z,103575.18
2023-02-12T07:59:06.969Z,103572.82
2023-02-12T08:01:35.899Z,103578.35
2023-02-12T08:04:07.374Z,103578.97
2023-02-12T08:06:38.894Z,103576.95
2023-02-12T08:09:10.949Z,103574.49
2023-02-12T08:11:39.758Z,103580.73
2023-02-12T08:14:08.048Z,103582.24
2023-02-12T08:16:40.616Z,103577.30
2023-02-12T08:19:18.699Z,103571.05
2023-02-12T08:21:48.450Z,103574.10
2023-02-12T08:24:16.165Z,103569.39
2023-02-12T08:26:43.928Z,103567.62
2023-02-12T08:29:15.782Z,103575.37
2023-02-12T08:31:49.470Z,103576.84
2023-02-12T08:34:23.910Z,103573.80
2023-02-12T08:36:55.130Z,103582.37
2023-02-12T08:39:24.185Z,103584.04
2023-02-12T08:41:53.111Z,103582.37
2023-02-12T08:44:20.901Z,103569.55
2023-02-12T08:46:51.433Z,103575.99
2023-02-12T08:49:29.125Z,103575.21
2023-02-12T08:52:00.439Z,103580.57
2023-02-12T08:54:30.604Z,103569.20
2023-02-12T08:57:00.970Z,103573.58
2023-02-12T08:59:29.410Z,103569.52
2023-02-12T09:01:57.361Z,103566.25
2023-02-12T09:04:27.401Z,103556.73
2023-02-12T09:06:55.225Z,103551.38
2023-02-12T09:09:23.383Z,103558.01
2023-02-12T09:11:51.375Z,103551.44
2023-02-12T09:14:25.268Z,103551.77
2023-02-12T09:16:54.206Z,103554.02
2023-02-12T09:19:22.729Z,103560.76
2023-02-12T09:21:57.314Z,103558.53
2023-02-12T09:24:28.486Z,103552.71
2023-02-12T09:26:56.434Z,103544.47
2023-02-12T09:29:24.069Z,103538.95
2023-02-12T09:31:51.873Z,103541.17
2023-02-12T09:34:19.714Z,103536.49
2023-02-12T09:36:47.392Z,103536.69
2023-02-12T09:39:15.097Z,103527.92
2023-02-12T09:42:01.387Z,103529.33
2023-02-12T09:44:54.092Z,103531.98
2023-02-12T09:47:45.568Z,103530.94
2023-02-12T09:50:39.180Z,103527.83
2023-02-12T09:53:07.327Z,103525.18
2023-02-12T09:55:36.212Z,103523.64
2023-02-12T09:58:12.312Z,103522.92
2023-02-12T10:00:40.255Z,103523.05
2023-02-12T10:03:16.222Z,103524.75
2023-02-12T10:05:52.604Z,103522.10
2023-02-12T10:08:53.156Z,103523.80
2023-02-12T10:11:20.876Z,103521.09
2023-02-12T10:13:55.029Z,103527.30
2023-02-12T10:16:28.831Z,103521.32
2023-02-12T10:19:20.605Z,103520.60
2023-02-12T10:22:02.394Z,103517.85
2023-02-12T10:24:54.317Z,103515.56
2023-02-12T10:27:39.487Z,103517.66
2023-02-12T10:30:27.756Z,103515.73
2023-02-12T10:33:02.841Z,103513.34
2023-02-12T10:35:31.863Z,103508.14
2023-02-12T10:38:07.308Z,103499.70
2023-02-12T10:40:38.730Z,103502.62
2023-02-12T10:43:06.971Z,103501.50
2023-02-12T10:45:40.944Z,103495.88
2023-02-12T10:48:08.513Z,103499.64
2023-02-12T10:51:03.957Z,103493.20
2023-02-12T10:53:37.264Z,103483.52
2023-02-12T10:56:14.107Z,103476.33
2023-02-12T10:58:44.185Z,103479.63
2023-02-12T11:01:39.246Z,103483.39
2023-02-12T11:04:28.123Z,103475.28
2023-02-12T11:07:09.391Z,103470.93
2023-02-12T11:09:48.403Z,103467.34
2023-02-12T11:12:49.148Z,103459.65
2023-02-12T11:15:24.846Z,103461.35
2023-02-12T11:18:23.475Z,103457.30
2023-02-12T11:21:04.183Z,103447.98
2023-02-12T11:23:44.896Z,103438.62
2023-02-12T11:26:21.503Z,103440.71
2023-02-12T11:28:59.664Z,103427.30
2023-02-12T11:31:30.552Z,103433.42
2023-02-12T11:34:17.528Z,103424.89
2023-02-12T11:36:54.352Z,103428.16
2023-02-12T11:39:31.369Z,103422.89
2023-02-12T11:42:15.890Z,103420.05
2023-02-12T11:44:52.045Z,103411.91
2023-02-12T11:47:23.427Z,103412.33
2023-02-12T11:49:57.333Z,103410.27
2023-02-12T11:52:31.102Z,103416.78
2023-02-12T11:55:04.027Z,103399.28
2023-02-12T11:57:48.335Z,103397.23
2023-02-12T12:00:35.518Z,103403.37
2023-02-12T12:03:14.627Z,103392.35
2023-02-12T12:06:07.834Z,103380.12
2023-02-12T12:08:52.656Z,103390.32
2023-02-12T12:12:01.175Z,103387.48
2023-02-12T12:15:07.971Z,103392.77
2023-02-12T12:18:05.687Z,103390.72
2023-02-12T12:20:40.268Z,103391.11
2023-02-12T12:23:17.029Z,103383.78
2023-02-12T12:25:56.229Z,103394.77
2023-02-12T12:28:31.654Z,103391.92
2023-02-12T12:31:21.301Z,103389.05
2023-02-12T12:33:52.849Z,103387.45
2023-02-12T12:37:07.838Z,103382.90
2023-02-12T12:40:00.134Z,103382.51
2023-02-12T12:42:33.710Z,103384.54
2023-02-12T12:45:13.523Z,103377.18
2023-02-12T12:48:02.290Z,103369.04
2023-02-12T12:50:50.498Z,103366.16
2023-02-12T12:53:18.275Z,103367.79
2023-02-12T12:55:55.259Z,103370.64
2023-02-12T12:58:40.922Z,103363.25
2023-02-12T13:01:14.597Z,103353.90
2023-02-12T13:04:00.837Z,103350.20
2023-02-12T13:06:39.048Z,103345.69
2023-02-12T13:09:34.973Z,103335.84
2023-02-12T13:12:20.730Z,103337.48
2023-02-12T13:14:56.807Z,103335.81
2023-02-12T13:17:26.599Z,103323.55
2023-02-12T13:19:59.861Z,103333.72
2023-02-12T13:22:44.462Z,103330.45
2023-02-12T13:25:46.111Z,103329.63
2023-02-12T13:28:25.195Z,103329.20
2023-02-12T13:30:56.076Z,103321.00
2023-02-12T13:33:28.497Z,103325.05
2023-02-12T13:36:01.859Z,103329.96
2023-02-12T13:38:58.391Z,103323.38
2023-02-12T13:41:26.756Z,103322.54
2023-02-12T13:44:16.390Z,103324.14
2023-02-12T13:47:16.113Z,103315.11
2023-02-12T13:49:52.104Z,103304.95
2023-02-12T13:52:40.875Z,103312.20
2023-02-12T13:55:31.968Z,103299.98
2023-02-12T13:58:38.513Z,103310.14
2023-02-12T14:01:09.057Z,103303.18
2023-02-12T14:03:38.938Z,103296.21
2023-02-12T14:06:21.549Z,103298.24
2023-02-12T14:09:08.294Z,103300.66
2023-02-12T14:11:49.570Z,103302.66
2023-02-12T14:14:31.051Z,103296.54
2023-02-12T14:16:58.875Z,103307.16
2023-02-12T14:19:40.076Z,103302.27
2023-02-12T14:22:28.014Z,103300.20
2023-02-12T14:24:58.109Z,103303.87
2023-02-12T14:27:55.719Z,103303.44
2023-02-12T14:30:29.104Z,103307.88
2023-02-12T14:33:11.340Z,103302.13
2023-02-12T14:35:43.010Z,103300.86
2023-02-12T14:38:11.322Z,103296.73
2023-02-12T14:40:41.794Z,103299.09
2023-02-12T14:43:27.690Z,103302.27
2023-02-12T14:46:00.130Z,103305.04
2023-02-12T14:48:43.372Z,103292.29
2023-02-12T14:51:21.706Z,103297.09
2023-02-12T14:53:51.759Z,103288.85
2023-02-12T14:56:24.396Z,103293.70
2023-02-12T14:58:55.366Z,103291.99
2023-02-12T15:01:35.013Z,103292.32
2023-02-12T15:04:24.765Z,103288.17
2023-02-12T15:06:58.996Z,103291.77
2023-02-12T15:09:33.144Z,103292.16
2023-02-12T15:12:12.111Z,103287.68
2023-02-12T15:14:47.127Z,103288.92
2023-02-12T15:17:26.438Z,103296.28
2023-02-12T15:20:22.382Z,103286.04
2023-02-12T15:22:50.172Z,103283.98
2023-02-12T15:25:31.207Z,103291.77
2023-02-12T15:28:02.931Z,103297.91
2023-02-12T15:30:35.023Z,103292.65
2023-02-12T15:33:06.694Z,103298.37
2023-02-12T15:35:38.166Z,103294.31
2023-02-12T15:38:08.798Z,103298.05
2023-02-12T15:40:36.583Z,103292.35
2023-02-12T15:43:05.782Z,103293.63
2023-02-12T15:45:37.939Z,103296.93
2023-02-12T15:48:16.851Z,103294.94
2023-02-12T15:51:06.202Z,103301.05
2023-02-12T15:53:34.531Z,103296.24
2023-02-12T15:56:03.865Z,103303.24
2023-02-12T15:58:45.395Z,103299.68
2023-02-12T16:01:40.058Z,103300.56
2023-02-12T16:04:09.405Z,103298.17
2023-02-12T16:06:38.107Z,103299.09
2023-02-12T16:09:08.734Z,103293.50
2023-02-12T16:11:37.976Z,103299.65
2023-02-12T16:14:20.160Z,103297.29
2023-02-12T16:16:50.539Z,103299.84
2023-02-12T16:19:22.429Z,103306.91
2023-02-12T16:22:15.485Z,103302.88
2023-02-12T16:24:53.521Z,103298.08
2023-02-12T16:27:24.290Z,103303.87
2023-02-12T16:29:58.088Z,103299.41
2023-02-12T16:32:41.744Z,103305.17
2023-02-12T16:35:12.392Z,103305.23
2023-02-12T16:37:40.098Z,103317.53
2023-02-12T16:40:13.613Z,103318.80
2023-02-12T16:42:49.982Z,103321.30
2023-02-12T16:45:29.363Z,103324.99
2023-02-12T16:48:05.189Z,103321.36
2023-02-12T16:50:35.241Z,103334.47
2023-02-12T16:53:24.591Z,103329.99
2023-02-12T16:55:52.362Z,103337.77
2023-02-12T16:58:20.133Z,103333.30
2023-02-12T17:00:48.814Z,103343.50
2023-02-12T17:03:18.197Z,103340.26
2023-02-12T17:05:46.488Z,103347.55
2023-02-12T17:08:16.450Z,103345.95
2023-02-12T17:10:45.925Z,103353.27
2023-02-12T17:13:13.566Z,103359.39
2023-02-12T17:16:02.693Z,103360.99
2023-02-12T17:18:33.816Z,103356.09
2023-02-12T17:21:05.347Z,103356.09
2023-02-12T17:23:33.575Z,103358.08
2023-02-12T17:26:01.640Z,103366.19
2023-02-12T17:28:29.497Z,103366.16
2023-02-12T17:30:58.798Z,103367.34
2023-02-12T17:33:26.948Z,103364.49
2023-02-12T17:35:54.850Z,103360.77
2023-02-12T17:38:23.506Z,103363.54
2023-02-12T17:40:52.606Z,103373.22
2023-02-12T17:43:20.636Z,103372.37
2023-02-12T17:45:48.942Z,103378.84
2023-02-12T17:48:17.881Z,103383.26
2023-02-12T17:50:45.625Z,103386.83
2023-02-12T17:53:14.144Z,103387.61
2023-02-12T17:55:42.648Z,103385.52
2023-02-12T17:58:10.404Z,103389.96
2023-02-12T18:00:38.219Z,103391.99
2023-02-12T18:03:05.976Z,103388.69
2023-02-12T18:05:33.769Z,103398.76
2023-02-12T18:08:04.604Z,103403.63
2023-02-12T18:10:32.271Z,103397.91
2023-02-12T18:13:00.019Z,103400.33
2023-02-12T18:15:27.815Z,103394.61
2023-02-12T18:17:55.705Z,103398.20
2023-02-12T18:20:23.432Z,103405.04
2023-02-12T18:22:51.312Z,103398.95
2023-02-12T18:25:19.075Z,103399.71
2023-02-12T18:27:46.785Z,103402.95
2023-02-12T18:30:15.381Z,103402.09
2023-02-12T18:32:44.451Z,103395.13
2023-02-12T18:35:12.254Z,103395.52
2023-02-12T18:37:42.867Z,103394.31
2023-02-12T18:40:11.266Z,103389.84
2023-02-12T18:42:39.070Z,103395.06
2023-02-12T18:45:08.451Z,103399.12
2023-02-12T18:47:36.220Z,103397.84
2023-02-12T18:50:03.972Z,103395.00
2023-02-12T18:52:33.203Z,103402.23
2023-02-12T18:55:00.904Z,103389.15
2023-02-12T18:57:29.085Z,103398.43
2023-02-12T18:59:56.739Z,103397.59
2023-02-12T19:02:24.754Z,103399.19
2023-02-12T19:04:52.544Z,103396.66
2023-02-12T19:07:20.386Z,103397.45
2023-02-12T19:09:48.147Z,103400.63
2023-02-12T19:12:15.992Z,103400.13
2023-02-12T19:14:43.696Z,103397.23
2023-02-12T19:17:11.491Z,103399.25
2023-02-12T19:19:39.314Z,103397.19
2023-02-12T19:22:07.050Z,103395.13
2023-02-12T19:24:45.808Z,103397.06
2023-02-12T19:27:14.393Z,103394.18
2023-02-12T19:29:42.601Z,103390.91
2023-02-12T19:32:10.564Z,103395.78
2023-02-12T19:34:38.581Z,103397.35
2023-02-12T19:37:06.299Z,103396.54
2023-02-12T19:39:34.209Z,103387.61
2023-02-12T19:42:02.117Z,103393.66
2023-02-12T19:44:29.886Z,103390.78
2023-02-12T19:46:58.736Z,103392.35
2023-02-12T19:49:29.356Z,103398.83
2023-02-12T19:51:57.144Z,103399.25
2023-02-12T19:54:25.883Z,103393.95
2023-02-12T19:56:55.038Z,103398.70
2023-02-12T19:59:25.042Z,103400.69
2023-02-12T20:01:53.212Z,103401.90
2023-02-12T20:04:24.052Z,103403.11
2023-02-12T20:06:54.737Z,103396.18
2023-02-12T20:09:23.704Z,103400.20
2023-02-12T20:11:52.041Z,103398.07
2023-02-12T20:14:21.877Z,103396.83
2023-02-12T20:16:51.056Z,103393.01
2023-02-12T20:19:30.646Z,103394.21
2023-02-12T20:22:00.150Z,103397.45
2023-02-12T20:24:30.884Z,103391.27
2023-02-12T20:27:00.941Z,103398.11
2023-02-12T20:29:29.153Z,103390.81
2023-02-12T20:31:57.072Z,103399.28
2023-02-12T20:34:24.917Z,103398.83
2023-02-12T20:36:52.716Z,103404.12
2023-02-12T20:39:22.288Z,103408.54
2023-02-12T20:41:50.924Z,103410.92
2023-02-12T20:44:22.353Z,103424.46
2023-02-12T20:46:55.812Z,103418.28
2023-02-12T20:49:25.324Z,103425.97
2023-02-12T20:51:53.814Z,103424.33
2023-02-12T20:54:22.172Z,103424.69
2023-02-12T20:56:51.572Z,103424.69
2023-02-12T20:59:20.096Z,103421.75
2023-02-12T21:01:48.559Z,103425.31
2023-02-12T21:04:19.856Z,103419.91
2023-02-12T21:06:49.593Z,103433.16
2023-02-12T21:09:17.567Z,103435.48
2023-02-12T21:11:46.904Z,103436.70
2023-02-12T21:14:22.478Z,103434.24
2023-02-12T21:16:51.292Z,103429.40
2023-02-12T21:19:19.630Z,103431.33
2023-02-12T21:21:47.893Z,103429.23
2023-02-12T21:24:19.331Z,103429.63
2023-02-12T21:26:47.152Z,103438.13
2023-02-12T21:29:15.117Z,103430.84
2023-02-12T21:31:47.254Z,103434.01
2023-02-12T21:34:18.471Z,103437.97
2023-02-12T21:36:47.732Z,103441.17
2023-02-12T21:39:25.545Z,103428.23
2023-02-12T21:41:55.878Z,103427.83
2023-02-12T21:44:24.940Z,103431.03
2023-02-12T21:46:53.467Z,103441.92
2023-02-12T21:49:28.920Z,103444.21
2023-02-12T21:52:00.434Z,103444.54
2023-02-12T21:54:28.331Z,103445.26
2023-02-12T21:56:56.554Z,103444.02
2023-02-12T21:59:25.884Z,103441.53
2023-02-12T22:01:56.828Z,103449.22
2023-02-12T22:04:24.805Z,103444.38
2023-02-12T22:06:53.625Z,103449.28
2023-02-12T22:09:23.315Z,103459.02
2023-02-12T22:11:53.172Z,103459.48
2023-02-12T22:14:22.361Z,103454.64
2023-02-12T22:16:50.761Z,103459.38
2023-02-12T22:19:19.067Z,103456.57
2023-02-12T22:21:46.904Z,103457.75
2023-02-12T22:24:16.908Z,103452.09
2023-02-12T22:26:45.921Z,103458.50
2023-02-12T22:29:16.386Z,103454.41
2023-02-12T22:31:45.893Z,103455.95
2023-02-12T22:34:16.481Z,103460.50
2023-02-12T22:36:44.884Z,103460.98
2023-02-12T22:39:14.353Z,103460.89
2023-02-12T22:41:43.482Z,103468.48
2023-02-12T22:44:13.585Z,103470.05
2023-02-12T22:46:42.678Z,103468.34
2023-02-12T22:49:10.995Z,103472.37
2023-02-12T22:51:40.585Z,103477.01
2023-02-12T22:54:08.719Z,103473.38
2023-02-12T22:56:36.439Z,103476.12
2023-02-12T22:59:04.363Z,103480.58
2023-02-12T23:01:32.747Z,103474.56
2023-02-12T23:04:00.755Z,103480.67
2023-02-12T23:06:30.932Z,103479.82
2023-02-12T23:09:04.946Z,103477.01
2023-02-12T23:11:34.401Z,103476.91
2023-02-12T23:14:02.320Z,103478.94
2023-02-12T23:16:30.187Z,103478.22
2023-02-12T23:18:59.701Z,103475.31
2023-02-12T23:21:29.291Z,103481.72
2023-02-12T23:23:57.772Z,103476.36
2023-02-12T23:26:25.813Z,103477.08
2023-02-12T23:28:53.556Z,103481.49
2023-02-12T23:31:21.723Z,103482.08
2023-02-12T23:33:49.736Z,103488.49
2023-02-12T23:36:17.610Z,103484.37
2023-02-12T23:38:45.494Z,103490.95
2023-02-12T23:41:13.265Z,103486.00
2023-02-12T23:43:41.110Z,103481.20
2023-02-12T23:46:10.364Z,103486.10
2023-02-12T23:48:38.619Z,103491.86
2023-02-12T23:51:06.606Z,103487.05
2023-02-12T23:53:34.300Z,103488.23
2023-02-12T23:56:02.258Z,103487.84
2023-02-12T23:58:29.998Z,103490.32
